sensor_id;sensor_type;location;lat;lon;timestamp;P1;durP1;ratioP1;P2;durP2;ratioP2
11100;SDS011;5604;50.722;7.078;2022-11-15T00:00:44;9.07;;;7.67;;
11100;SDS011;5604;50.722;7.078;2022-11-15T00:03:31;10.63;;;7.60;;
11100;SDS011;5604;50.722;7.078;2022-11-15T00:06:18;10.23;;;8.10;;
11100;SDS011;5604;50.722;7.078;2022-11-15T00:09:06;13.30;;;8.17;;
11100;SDS011;5604;50.722;7.078;2022-11-15T00:11:52;10.67;;;8.07;;
11100;SDS011;5604;50.722;7.078;2022-11-15T00:14:40;8.37;;;7.37;;
11100;SDS011;5604;50.722;7.078;2022-11-15T00:17:27;12.43;;;8.37;;
11100;SDS011;5604;50.722;7.078;2022-11-15T00:20:14;10.80;;;7.87;;
11100;SDS011;5604;50.722;7.078;2022-11-15T00:23:02;11.10;;;8.20;;
11100;SDS011;5604;50.722;7.078;2022-11-15T00:25:55;10.60;;;8.70;;
11100;SDS011;5604;50.722;7.078;2022-11-15T00:28:42;9.67;;;7.43;;
11100;SDS011;5604;50.722;7.078;2022-11-15T00:31:31;11.17;;;8.00;;
11100;SDS011;5604;50.722;7.078;2022-11-15T00:34:17;9.33;;;7.77;;
11100;SDS011;5604;50.722;7.078;2022-11-15T00:37:04;10.87;;;8.23;;
11100;SDS011;5604;50.722;7.078;2022-11-15T00:39:52;10.73;;;8.10;;
11100;SDS011;5604;50.722;7.078;2022-11-15T00:42:39;10.17;;;8.70;;
11100;SDS011;5604;50.722;7.078;2022-11-15T00:45:26;9.00;;;8.10;;
11100;SDS011;5604;50.722;7.078;2022-11-15T00:48:14;10.60;;;7.90;;
11100;SDS011;5604;50.722;7.078;2022-11-15T00:51:01;7.60;;;6.80;;
11100;SDS011;5604;50.722;7.078;2022-11-15T00:53:48;10.43;;;7.10;;
11100;SDS011;5604;50.722;7.078;2022-11-15T00:56:35;8.17;;;7.33;;
11100;SDS011;5604;50.722;7.078;2022-11-15T00:59:22;9.63;;;7.53;;
11100;SDS011;5604;50.722;7.078;2022-11-15T01:02:09;8.37;;;7.47;;
11100;SDS011;5604;50.722;7.078;2022-11-15T01:04:58;8.33;;;7.53;;
11100;SDS011;5604;50.722;7.078;2022-11-15T01:07:44;10.37;;;9.17;;
11100;SDS011;5604;50.722;7.078;2022-11-15T01:10:31;9.67;;;8.50;;
11100;SDS011;5604;50.722;7.078;2022-11-15T01:13:19;13.50;;;9.23;;
11100;SDS011;5604;50.722;7.078;2022-11-15T01:16:07;10.30;;;9.20;;
11100;SDS011;5604;50.722;7.078;2022-11-15T01:18:54;11.13;;;9.03;;
11100;SDS011;5604;50.722;7.078;2022-11-15T01:21:43;10.23;;;8.43;;
11100;SDS011;5604;50.722;7.078;2022-11-15T01:24:29;10.90;;;9.60;;
11100;SDS011;5604;50.722;7.078;2022-11-15T01:27:17;14.10;;;9.03;;
11100;SDS011;5604;50.722;7.078;2022-11-15T01:30:05;12.13;;;9.80;;
11100;SDS011;5604;50.722;7.078;2022-11-15T01:32:53;15.63;;;10.13;;
11100;SDS011;5604;50.722;7.078;2022-11-15T01:35:40;11.13;;;9.83;;
11100;SDS011;5604;50.722;7.078;2022-11-15T01:38:28;12.90;;;10.30;;
11100;SDS011;5604;50.722;7.078;2022-11-15T01:41:16;13.37;;;8.93;;
11100;SDS011;5604;50.722;7.078;2022-11-15T01:47:28;13.37;;;8.87;;
11100;SDS011;5604;50.722;7.078;2022-11-15T01:50:17;9.70;;;8.13;;
11100;SDS011;5604;50.722;7.078;2022-11-15T01:53:06;9.70;;;8.10;;
11100;SDS011;5604;50.722;7.078;2022-11-15T01:55:54;10.77;;;8.13;;
11100;SDS011;5604;50.722;7.078;2022-11-15T01:58:42;9.40;;;7.73;;
11100;SDS011;5604;50.722;7.078;2022-11-15T02:01:29;10.83;;;7.23;;
11100;SDS011;5604;50.722;7.078;2022-11-15T02:04:19;8.07;;;7.27;;
11100;SDS011;5604;50.722;7.078;2022-11-15T02:07:08;9.40;;;8.50;;
11100;SDS011;5604;50.722;7.078;2022-11-15T02:09:57;9.30;;;7.70;;
11100;SDS011;5604;50.722;7.078;2022-11-15T02:12:46;8.67;;;7.87;;
11100;SDS011;5604;50.722;7.078;2022-11-15T02:15:35;8.03;;;7.20;;
11100;SDS011;5604;50.722;7.078;2022-11-15T02:18:25;8.00;;;7.20;;
11100;SDS011;5604;50.722;7.078;2022-11-15T02:21:17;10.27;;;8.13;;
11100;SDS011;5604;50.722;7.078;2022-11-15T02:24:11;8.67;;;7.77;;
11100;SDS011;5604;50.722;7.078;2022-11-15T02:27:35;9.43;;;7.10;;
11100;SDS011;5604;50.722;7.078;2022-11-15T02:30:32;7.80;;;7.00;;
11100;SDS011;5604;50.722;7.078;2022-11-15T02:33:26;9.50;;;7.53;;
11100;SDS011;5604;50.722;7.078;2022-11-15T02:36:20;7.50;;;6.77;;
11100;SDS011;5604;50.722;7.078;2022-11-15T02:39:14;7.60;;;6.87;;
11100;SDS011;5604;50.722;7.078;2022-11-15T02:42:07;9.47;;;7.63;;
11100;SDS011;5604;50.722;7.078;2022-11-15T02:45:16;9.63;;;6.83;;
11100;SDS011;5604;50.722;7.078;2022-11-15T02:48:07;7.53;;;6.73;;
11100;SDS011;5604;50.722;7.078;2022-11-15T02:50:55;7.53;;;6.73;;
11100;SDS011;5604;50.722;7.078;2022-11-15T02:53:42;9.93;;;6.50;;
11100;SDS011;5604;50.722;7.078;2022-11-15T02:56:29;9.07;;;6.83;;
11100;SDS011;5604;50.722;7.078;2022-11-15T02:59:23;9.83;;;7.17;;
11100;SDS011;5604;50.722;7.078;2022-11-15T03:02:39;6.50;;;5.90;;
11100;SDS011;5604;50.722;7.078;2022-11-15T03:05:40;7.10;;;5.77;;
11100;SDS011;5604;50.722;7.078;2022-11-15T03:08:31;7.97;;;6.13;;
11100;SDS011;5604;50.722;7.078;2022-11-15T03:11:19;8.27;;;6.57;;
11100;SDS011;5604;50.722;7.078;2022-11-15T03:14:10;7.10;;;6.17;;
11100;SDS011;5604;50.722;7.078;2022-11-15T03:17:05;6.87;;;6.17;;
11100;SDS011;5604;50.722;7.078;2022-11-15T03:19:59;7.40;;;6.70;;
11100;SDS011;5604;50.722;7.078;2022-11-15T03:22:49;7.43;;;6.73;;
11100;SDS011;5604;50.722;7.078;2022-11-15T03:25:38;7.40;;;6.27;;
11100;SDS011;5604;50.722;7.078;2022-11-15T03:28:29;7.60;;;6.30;;
11100;SDS011;5604;50.722;7.078;2022-11-15T03:31:21;7.37;;;6.77;;
11100;SDS011;5604;50.722;7.078;2022-11-15T03:34:34;8.20;;;6.97;;
11100;SDS011;5604;50.722;7.078;2022-11-15T03:37:24;7.87;;;6.93;;
11100;SDS011;5604;50.722;7.078;2022-11-15T03:40:17;7.47;;;6.77;;
11100;SDS011;5604;50.722;7.078;2022-11-15T03:43:14;9.37;;;7.27;;
11100;SDS011;5604;50.722;7.078;2022-11-15T03:46:04;6.93;;;6.30;;
11100;SDS011;5604;50.722;7.078;2022-11-15T03:48:54;8.67;;;7.03;;
11100;SDS011;5604;50.722;7.078;2022-11-15T03:51:45;10.67;;;7.50;;
11100;SDS011;5604;50.722;7.078;2022-11-15T03:54:32;7.87;;;7.13;;
11100;SDS011;5604;50.722;7.078;2022-11-15T03:57:20;7.63;;;6.93;;
11100;SDS011;5604;50.722;7.078;2022-11-15T04:00:08;7.13;;;6.47;;
11100;SDS011;5604;50.722;7.078;2022-11-15T04:02:55;6.53;;;5.90;;
11100;SDS011;5604;50.722;7.078;2022-11-15T04:05:42;7.97;;;7.17;;
11100;SDS011;5604;50.722;7.078;2022-11-15T04:08:29;7.30;;;6.60;;
11100;SDS011;5604;50.722;7.078;2022-11-15T04:11:16;7.53;;;6.83;;
11100;SDS011;5604;50.722;7.078;2022-11-15T04:14:04;7.13;;;6.53;;
11100;SDS011;5604;50.722;7.078;2022-11-15T04:16:51;7.93;;;6.53;;
11100;SDS011;5604;50.722;7.078;2022-11-15T04:19:38;6.43;;;5.83;;
11100;SDS011;5604;50.722;7.078;2022-11-15T04:22:42;9.50;;;6.50;;
11100;SDS011;5604;50.722;7.078;2022-11-15T04:25:46;7.00;;;6.30;;
11100;SDS011;5604;50.722;7.078;2022-11-15T04:28:35;7.33;;;6.60;;
11100;SDS011;5604;50.722;7.078;2022-11-15T04:31:45;7.20;;;6.50;;
11100;SDS011;5604;50.722;7.078;2022-11-15T04:34:32;7.17;;;6.50;;
11100;SDS011;5604;50.722;7.078;2022-11-15T04:37:19;7.53;;;6.83;;
11100;SDS011;5604;50.722;7.078;2022-11-15T04:40:07;7.40;;;6.80;;
11100;SDS011;5604;50.722;7.078;2022-11-15T04:42:55;9.00;;;7.20;;
11100;SDS011;5604;50.722;7.078;2022-11-15T04:45:48;7.97;;;7.17;;
11100;SDS011;5604;50.722;7.078;2022-11-15T04:48:36;7.87;;;6.27;;
11100;SDS011;5604;50.722;7.078;2022-11-15T04:51:22;6.73;;;6.13;;
11100;SDS011;5604;50.722;7.078;2022-11-15T04:54:09;7.33;;;6.53;;
11100;SDS011;5604;50.722;7.078;2022-11-15T04:56:56;8.70;;;6.50;;
11100;SDS011;5604;50.722;7.078;2022-11-15T04:59:43;6.77;;;6.17;;
11100;SDS011;5604;50.722;7.078;2022-11-15T05:02:30;7.23;;;6.37;;
11100;SDS011;5604;50.722;7.078;2022-11-15T05:05:32;6.80;;;6.10;;
11100;SDS011;5604;50.722;7.078;2022-11-15T05:08:19;7.23;;;6.53;;
11100;SDS011;5604;50.722;7.078;2022-11-15T05:11:05;7.13;;;5.80;;
11100;SDS011;5604;50.722;7.078;2022-11-15T05:13:52;6.33;;;5.73;;
11100;SDS011;5604;50.722;7.078;2022-11-15T05:16:39;5.90;;;5.23;;
11100;SDS011;5604;50.722;7.078;2022-11-15T05:19:26;7.07;;;4.87;;
11100;SDS011;5604;50.722;7.078;2022-11-15T05:22:14;7.80;;;5.53;;
11100;SDS011;5604;50.722;7.078;2022-11-15T05:25:01;6.97;;;5.20;;
11100;SDS011;5604;50.722;7.078;2022-11-15T05:27:48;5.77;;;4.40;;
11100;SDS011;5604;50.722;7.078;2022-11-15T05:30:35;4.90;;;4.33;;
11100;SDS011;5604;50.722;7.078;2022-11-15T05:33:22;3.87;;;3.57;;
11100;SDS011;5604;50.722;7.078;2022-11-15T05:36:12;4.53;;;4.13;;
11100;SDS011;5604;50.722;7.078;2022-11-15T05:39:04;5.03;;;3.80;;
11100;SDS011;5604;50.722;7.078;2022-11-15T05:41:54;5.00;;;4.13;;
11100;SDS011;5604;50.722;7.078;2022-11-15T05:44:43;4.87;;;4.00;;
11100;SDS011;5604;50.722;7.078;2022-11-15T05:47:32;6.13;;;4.43;;
11100;SDS011;5604;50.722;7.078;2022-11-15T05:50:20;5.07;;;4.57;;
11100;SDS011;5604;50.722;7.078;2022-11-15T05:53:11;5.93;;;4.40;;
11100;SDS011;5604;50.722;7.078;2022-11-15T05:56:01;5.50;;;4.43;;
11100;SDS011;5604;50.722;7.078;2022-11-15T05:58:49;5.33;;;4.13;;
11100;SDS011;5604;50.722;7.078;2022-11-15T06:01:42;5.50;;;4.17;;
11100;SDS011;5604;50.722;7.078;2022-11-15T06:04:29;4.83;;;4.43;;
11100;SDS011;5604;50.722;7.078;2022-11-15T06:07:16;6.03;;;4.90;;
11100;SDS011;5604;50.722;7.078;2022-11-15T06:10:03;5.37;;;4.50;;
11100;SDS011;5604;50.722;7.078;2022-11-15T06:12:57;6.07;;;4.57;;
11100;SDS011;5604;50.722;7.078;2022-11-15T06:15:44;5.80;;;5.20;;
11100;SDS011;5604;50.722;7.078;2022-11-15T06:18:31;5.50;;;4.90;;
11100;SDS011;5604;50.722;7.078;2022-11-15T06:21:19;6.37;;;4.73;;
11100;SDS011;5604;50.722;7.078;2022-11-15T06:24:06;5.73;;;4.83;;
11100;SDS011;5604;50.722;7.078;2022-11-15T06:26:53;5.90;;;5.07;;
11100;SDS011;5604;50.722;7.078;2022-11-15T06:29:42;6.80;;;5.00;;
11100;SDS011;5604;50.722;7.078;2022-11-15T06:32:29;4.43;;;4.03;;
11100;SDS011;5604;50.722;7.078;2022-11-15T06:35:16;4.83;;;4.00;;
11100;SDS011;5604;50.722;7.078;2022-11-15T06:38:04;5.53;;;4.37;;
11100;SDS011;5604;50.722;7.078;2022-11-15T06:40:51;5.03;;;4.37;;
11100;SDS011;5604;50.722;7.078;2022-11-15T06:43:38;7.23;;;3.77;;
11100;SDS011;5604;50.722;7.078;2022-11-15T06:46:26;4.60;;;3.90;;
11100;SDS011;5604;50.722;7.078;2022-11-15T06:49:12;4.43;;;4.03;;
11100;SDS011;5604;50.722;7.078;2022-11-15T06:51:59;4.20;;;3.80;;
11100;SDS011;5604;50.722;7.078;2022-11-15T06:54:46;4.13;;;3.80;;
11100;SDS011;5604;50.722;7.078;2022-11-15T06:57:33;4.50;;;3.90;;
11100;SDS011;5604;50.722;7.078;2022-11-15T07:00:20;6.50;;;3.80;;
11100;SDS011;5604;50.722;7.078;2022-11-15T07:03:09;4.50;;;3.27;;
11100;SDS011;5604;50.722;7.078;2022-11-15T07:05:58;4.47;;;3.83;;
11100;SDS011;5604;50.722;7.078;2022-11-15T07:08:51;4.07;;;3.77;;
11100;SDS011;5604;50.722;7.078;2022-11-15T07:11:38;6.63;;;4.23;;
11100;SDS011;5604;50.722;7.078;2022-11-15T07:14:24;3.70;;;3.30;;
11100;SDS011;5604;50.722;7.078;2022-11-15T07:17:11;4.17;;;3.77;;
11100;SDS011;5604;50.722;7.078;2022-11-15T07:19:59;4.00;;;3.60;;
11100;SDS011;5604;50.722;7.078;2022-11-15T07:22:45;4.37;;;3.50;;
11100;SDS011;5604;50.722;7.078;2022-11-15T07:25:32;4.53;;;3.30;;
11100;SDS011;5604;50.722;7.078;2022-11-15T07:28:18;6.60;;;3.67;;
11100;SDS011;5604;50.722;7.078;2022-11-15T07:31:06;4.43;;;3.23;;
11100;SDS011;5604;50.722;7.078;2022-11-15T07:33:53;3.60;;;3.30;;
11100;SDS011;5604;50.722;7.078;2022-11-15T07:36:42;5.67;;;2.70;;
11100;SDS011;5604;50.722;7.078;2022-11-15T07:39:29;3.13;;;2.83;;
11100;SDS011;5604;50.722;7.078;2022-11-15T07:42:15;2.97;;;2.67;;
11100;SDS011;5604;50.722;7.078;2022-11-15T07:45:19;2.70;;;2.50;;
11100;SDS011;5604;50.722;7.078;2022-11-15T07:48:06;2.87;;;2.40;;
11100;SDS011;5604;50.722;7.078;2022-11-15T07:50:53;2.60;;;2.40;;
11100;SDS011;5604;50.722;7.078;2022-11-15T07:53:41;4.63;;;2.10;;
11100;SDS011;5604;50.722;7.078;2022-11-15T07:56:28;4.97;;;2.27;;
11100;SDS011;5604;50.722;7.078;2022-11-15T07:59:14;5.47;;;2.50;;
11100;SDS011;5604;50.722;7.078;2022-11-15T08:02:01;3.93;;;2.40;;
11100;SDS011;5604;50.722;7.078;2022-11-15T08:04:49;2.43;;;2.23;;
11100;SDS011;5604;50.722;7.078;2022-11-15T08:07:35;3.20;;;2.20;;
11100;SDS011;5604;50.722;7.078;2022-11-15T08:10:25;3.73;;;2.40;;
11100;SDS011;5604;50.722;7.078;2022-11-15T08:13:13;2.50;;;2.30;;
11100;SDS011;5604;50.722;7.078;2022-11-15T08:16:00;5.53;;;2.27;;
11100;SDS011;5604;50.722;7.078;2022-11-15T08:18:50;5.63;;;2.13;;
11100;SDS011;5604;50.722;7.078;2022-11-15T08:21:37;3.93;;;2.23;;
11100;SDS011;5604;50.722;7.078;2022-11-15T08:24:23;2.87;;;1.83;;
11100;SDS011;5604;50.722;7.078;2022-11-15T08:27:11;2.03;;;1.90;;
11100;SDS011;5604;50.722;7.078;2022-11-15T08:30:03;3.07;;;1.90;;
11100;SDS011;5604;50.722;7.078;2022-11-15T08:32:55;4.93;;;1.90;;
11100;SDS011;5604;50.722;7.078;2022-11-15T08:35:43;4.00;;;2.00;;
11100;SDS011;5604;50.722;7.078;2022-11-15T08:38:30;1.60;;;1.50;;
11100;SDS011;5604;50.722;7.078;2022-11-15T08:41:19;2.73;;;1.67;;
11100;SDS011;5604;50.722;7.078;2022-11-15T08:44:12;3.77;;;1.60;;
11100;SDS011;5604;50.722;7.078;2022-11-15T08:46:59;1.50;;;1.40;;
11100;SDS011;5604;50.722;7.078;2022-11-15T08:49:46;1.57;;;1.47;;
11100;SDS011;5604;50.722;7.078;2022-11-15T08:52:32;2.83;;;1.50;;
11100;SDS011;5604;50.722;7.078;2022-11-15T08:55:19;1.60;;;1.30;;
11100;SDS011;5604;50.722;7.078;2022-11-15T08:58:09;3.67;;;1.67;;
11100;SDS011;5604;50.722;7.078;2022-11-15T09:00:57;1.40;;;1.27;;
11100;SDS011;5604;50.722;7.078;2022-11-15T09:03:44;2.83;;;1.70;;
11100;SDS011;5604;50.722;7.078;2022-11-15T09:06:31;2.73;;;1.57;;
11100;SDS011;5604;50.722;7.078;2022-11-15T09:09:18;1.83;;;1.60;;
11100;SDS011;5604;50.722;7.078;2022-11-15T09:12:05;4.73;;;1.47;;
11100;SDS011;5604;50.722;7.078;2022-11-15T09:14:52;7.97;;;1.97;;
11100;SDS011;5604;50.722;7.078;2022-11-15T09:17:41;1.97;;;1.10;;
11100;SDS011;5604;50.722;7.078;2022-11-15T09:20:28;1.80;;;1.10;;
11100;SDS011;5604;50.722;7.078;2022-11-15T09:23:15;1.70;;;0.93;;
11100;SDS011;5604;50.722;7.078;2022-11-15T09:26:03;3.30;;;1.43;;
11100;SDS011;5604;50.722;7.078;2022-11-15T09:28:51;1.50;;;1.30;;
11100;SDS011;5604;50.722;7.078;2022-11-15T09:31:37;2.03;;;1.10;;
11100;SDS011;5604;50.722;7.078;2022-11-15T09:34:25;2.33;;;1.00;;
11100;SDS011;5604;50.722;7.078;2022-11-15T09:37:13;3.33;;;1.20;;
11100;SDS011;5604;50.722;7.078;2022-11-15T09:39:59;2.20;;;1.23;;
11100;SDS011;5604;50.722;7.078;2022-11-15T09:42:52;1.93;;;1.07;;
11100;SDS011;5604;50.722;7.078;2022-11-15T09:45:52;2.37;;;1.10;;
11100;SDS011;5604;50.722;7.078;2022-11-15T09:48:53;2.73;;;1.00;;
11100;SDS011;5604;50.722;7.078;2022-11-15T09:51:29;2.63;;;1.20;;
11100;SDS011;5604;50.722;7.078;2022-11-15T09:54:05;3.33;;;1.07;;
11100;SDS011;5604;50.722;7.078;2022-11-15T09:57:02;3.13;;;1.30;;
11100;SDS011;5604;50.722;7.078;2022-11-15T09:59:48;2.00;;;1.17;;
11100;SDS011;5604;50.722;7.078;2022-11-15T10:02:29;3.20;;;1.03;;
11100;SDS011;5604;50.722;7.078;2022-11-15T10:05:04;4.13;;;0.90;;
11100;SDS011;5604;50.722;7.078;2022-11-15T10:07:40;1.23;;;1.07;;
11100;SDS011;5604;50.722;7.078;2022-11-15T10:10:15;4.93;;;1.10;;
11100;SDS011;5604;50.722;7.078;2022-11-15T10:12:47;9.73;;;2.17;;
11100;SDS011;5604;50.722;7.078;2022-11-15T10:15:16;2.60;;;1.13;;
11100;SDS011;5604;50.722;7.078;2022-11-15T10:17:59;3.13;;;1.23;;
11100;SDS011;5604;50.722;7.078;2022-11-15T10:20:33;1.83;;;1.33;;
11100;SDS011;5604;50.722;7.078;2022-11-15T10:23:12;2.97;;;0.90;;
11100;SDS011;5604;50.722;7.078;2022-11-15T10:25:42;2.67;;;1.03;;
11100;SDS011;5604;50.722;7.078;2022-11-15T10:28:13;3.57;;;1.20;;
11100;SDS011;5604;50.722;7.078;2022-11-15T10:30:45;1.90;;;1.20;;
11100;SDS011;5604;50.722;7.078;2022-11-15T10:33:18;4.03;;;1.30;;
11100;SDS011;5604;50.722;7.078;2022-11-15T10:38:57;1.63;;;0.90;;
11100;SDS011;5604;50.722;7.078;2022-11-15T10:41:37;2.37;;;1.07;;
11100;SDS011;5604;50.722;7.078;2022-11-15T10:44:09;2.07;;;0.93;;
11100;SDS011;5604;50.722;7.078;2022-11-15T10:46:41;3.77;;;1.27;;
11100;SDS011;5604;50.722;7.078;2022-11-15T10:49:14;5.80;;;1.13;;
11100;SDS011;5604;50.722;7.078;2022-11-15T10:51:46;1.60;;;0.90;;
11100;SDS011;5604;50.722;7.078;2022-11-15T10:54:23;1.87;;;1.03;;
11100;SDS011;5604;50.722;7.078;2022-11-15T10:56:53;3.23;;;1.00;;
11100;SDS011;5604;50.722;7.078;2022-11-15T10:59:24;2.83;;;0.90;;
11100;SDS011;5604;50.722;7.078;2022-11-15T11:01:54;1.93;;;1.13;;
11100;SDS011;5604;50.722;7.078;2022-11-15T11:04:23;1.93;;;0.90;;
11100;SDS011;5604;50.722;7.078;2022-11-15T11:06:52;2.33;;;0.90;;
11100;SDS011;5604;50.722;7.078;2022-11-15T11:09:28;2.50;;;0.93;;
11100;SDS011;5604;50.722;7.078;2022-11-15T11:11:58;2.03;;;0.80;;
11100;SDS011;5604;50.722;7.078;2022-11-15T11:14:28;2.53;;;1.30;;
11100;SDS011;5604;50.722;7.078;2022-11-15T11:17:01;2.73;;;1.00;;
11100;SDS011;5604;50.722;7.078;2022-11-15T11:19:46;1.47;;;0.90;;
11100;SDS011;5604;50.722;7.078;2022-11-15T11:22:22;2.40;;;0.97;;
11100;SDS011;5604;50.722;7.078;2022-11-15T11:24:56;1.97;;;0.90;;
11100;SDS011;5604;50.722;7.078;2022-11-15T11:27:36;2.40;;;1.00;;
11100;SDS011;5604;50.722;7.078;2022-11-15T11:30:09;2.00;;;1.10;;
11100;SDS011;5604;50.722;7.078;2022-11-15T11:32:50;1.67;;;0.80;;
11100;SDS011;5604;50.722;7.078;2022-11-15T11:35:29;3.20;;;1.50;;
11100;SDS011;5604;50.722;7.078;2022-11-15T11:38:01;2.30;;;1.10;;
11100;SDS011;5604;50.722;7.078;2022-11-15T11:40:44;2.47;;;1.23;;
11100;SDS011;5604;50.722;7.078;2022-11-15T11:43:27;2.43;;;0.90;;
11100;SDS011;5604;50.722;7.078;2022-11-15T11:46:13;2.90;;;1.20;;
11100;SDS011;5604;50.722;7.078;2022-11-15T11:48:46;1.90;;;0.90;;
11100;SDS011;5604;50.722;7.078;2022-11-15T11:51:18;4.00;;;1.10;;
11100;SDS011;5604;50.722;7.078;2022-11-15T11:53:50;5.83;;;1.40;;
11100;SDS011;5604;50.722;7.078;2022-11-15T11:56:26;4.57;;;1.67;;
11100;SDS011;5604;50.722;7.078;2022-11-15T11:58:57;5.37;;;1.60;;
11100;SDS011;5604;50.722;7.078;2022-11-15T12:01:32;3.30;;;1.70;;
11100;SDS011;5604;50.722;7.078;2022-11-15T12:04:04;3.60;;;1.30;;
11100;SDS011;5604;50.722;7.078;2022-11-15T12:06:38;5.63;;;2.17;;
11100;SDS011;5604;50.722;7.078;2022-11-15T12:09:12;1.90;;;1.10;;
11100;SDS011;5604;50.722;7.078;2022-11-15T12:11:47;3.67;;;1.70;;
11100;SDS011;5604;50.722;7.078;2022-11-15T12:14:23;4.90;;;2.07;;
11100;SDS011;5604;50.722;7.078;2022-11-15T12:16:57;4.77;;;2.30;;
11100;SDS011;5604;50.722;7.078;2022-11-15T12:19:26;5.30;;;1.70;;
11100;SDS011;5604;50.722;7.078;2022-11-15T12:21:58;2.50;;;1.53;;
11100;SDS011;5604;50.722;7.078;2022-11-15T12:24:32;6.17;;;4.20;;
11100;SDS011;5604;50.722;7.078;2022-11-15T12:27:05;4.43;;;2.47;;
11100;SDS011;5604;50.722;7.078;2022-11-15T12:29:37;3.13;;;1.60;;
11100;SDS011;5604;50.722;7.078;2022-11-15T12:32:14;6.10;;;2.43;;
11100;SDS011;5604;50.722;7.078;2022-11-15T12:34:48;5.10;;;2.70;;
11100;SDS011;5604;50.722;7.078;2022-11-15T12:37:34;6.53;;;2.13;;
11100;SDS011;5604;50.722;7.078;2022-11-15T12:40:30;2.20;;;1.77;;
11100;SDS011;5604;50.722;7.078;2022-11-15T12:43:05;4.23;;;2.33;;
11100;SDS011;5604;50.722;7.078;2022-11-15T12:45:56;2.87;;;2.00;;
11100;SDS011;5604;50.722;7.078;2022-11-15T12:57:28;5.07;;;2.30;;
11100;SDS011;5604;50.722;7.078;2022-11-15T13:00:05;6.83;;;3.10;;
11100;SDS011;5604;50.722;7.078;2022-11-15T13:06:05;5.17;;;2.50;;
11100;SDS011;5604;50.722;7.078;2022-11-15T13:08:37;3.60;;;2.20;;
11100;SDS011;5604;50.722;7.078;2022-11-15T13:17:30;3.97;;;2.27;;
11100;SDS011;5604;50.722;7.078;2022-11-15T13:20:19;2.40;;;2.20;;
11100;SDS011;5604;50.722;7.078;2022-11-15T13:22:50;3.43;;;2.50;;
11100;SDS011;5604;50.722;7.078;2022-11-15T13:25:25;4.60;;;2.30;;
11100;SDS011;5604;50.722;7.078;2022-11-15T13:28:01;8.20;;;2.90;;
11100;SDS011;5604;50.722;7.078;2022-11-15T13:30:33;4.97;;;2.80;;
11100;SDS011;5604;50.722;7.078;2022-11-15T13:33:07;3.57;;;2.43;;
11100;SDS011;5604;50.722;7.078;2022-11-15T13:35:38;2.97;;;2.10;;
11100;SDS011;5604;50.722;7.078;2022-11-15T13:38:11;4.90;;;2.40;;
11100;SDS011;5604;50.722;7.078;2022-11-15T13:40:46;4.40;;;2.40;;
11100;SDS011;5604;50.722;7.078;2022-11-15T13:43:31;3.50;;;2.20;;
11100;SDS011;5604;50.722;7.078;2022-11-15T13:48:52;4.57;;;2.63;;
11100;SDS011;5604;50.722;7.078;2022-11-15T13:51:30;3.73;;;2.63;;
11100;SDS011;5604;50.722;7.078;2022-11-15T13:54:06;3.40;;;2.17;;
11100;SDS011;5604;50.722;7.078;2022-11-15T13:56:36;4.67;;;2.63;;
11100;SDS011;5604;50.722;7.078;2022-11-15T13:59:08;3.37;;;2.20;;
11100;SDS011;5604;50.722;7.078;2022-11-15T14:01:39;7.17;;;4.47;;
11100;SDS011;5604;50.722;7.078;2022-11-15T14:04:12;4.47;;;2.80;;
11100;SDS011;5604;50.722;7.078;2022-11-15T14:06:45;4.33;;;2.60;;
11100;SDS011;5604;50.722;7.078;2022-11-15T14:09:34;4.37;;;2.30;;
11100;SDS011;5604;50.722;7.078;2022-11-15T14:14:54;5.60;;;2.67;;
11100;SDS011;5604;50.722;7.078;2022-11-15T14:17:32;4.83;;;2.40;;
11100;SDS011;5604;50.722;7.078;2022-11-15T14:20:18;3.83;;;2.20;;
11100;SDS011;5604;50.722;7.078;2022-11-15T14:22:51;4.23;;;2.13;;
11100;SDS011;5604;50.722;7.078;2022-11-15T14:25:20;7.33;;;2.37;;
11100;SDS011;5604;50.722;7.078;2022-11-15T14:28:12;2.90;;;2.10;;
11100;SDS011;5604;50.722;7.078;2022-11-15T14:30:43;5.83;;;2.70;;
11100;SDS011;5604;50.722;7.078;2022-11-15T14:33:21;4.57;;;2.40;;
11100;SDS011;5604;50.722;7.078;2022-11-15T14:35:52;20.03;;;3.20;;
11100;SDS011;5604;50.722;7.078;2022-11-15T14:38:21;14.23;;;3.33;;
11100;SDS011;5604;50.722;7.078;2022-11-15T14:40:51;4.47;;;2.07;;
11100;SDS011;5604;50.722;7.078;2022-11-15T14:43:20;5.00;;;2.50;;
11100;SDS011;5604;50.722;7.078;2022-11-15T14:45:48;3.00;;;1.77;;
11100;SDS011;5604;50.722;7.078;2022-11-15T14:48:16;3.23;;;1.63;;
11100;SDS011;5604;50.722;7.078;2022-11-15T14:50:45;3.43;;;2.00;;
11100;SDS011;5604;50.722;7.078;2022-11-15T14:53:15;3.23;;;1.97;;
11100;SDS011;5604;50.722;7.078;2022-11-15T14:55:46;3.50;;;1.60;;
11100;SDS011;5604;50.722;7.078;2022-11-15T14:58:14;4.83;;;2.23;;
11100;SDS011;5604;50.722;7.078;2022-11-15T15:00:42;2.70;;;1.73;;
11100;SDS011;5604;50.722;7.078;2022-11-15T15:03:11;3.47;;;2.23;;
11100;SDS011;5604;50.722;7.078;2022-11-15T15:05:40;2.70;;;2.00;;
11100;SDS011;5604;50.722;7.078;2022-11-15T15:08:09;2.97;;;2.03;;
11100;SDS011;5604;50.722;7.078;2022-11-15T15:10:40;4.53;;;1.80;;
11100;SDS011;5604;50.722;7.078;2022-11-15T15:13:12;2.70;;;1.90;;
11100;SDS011;5604;50.722;7.078;2022-11-15T15:15:45;2.57;;;1.80;;
11100;SDS011;5604;50.722;7.078;2022-11-15T15:18:13;2.87;;;1.70;;
11100;SDS011;5604;50.722;7.078;2022-11-15T15:20:42;4.23;;;2.13;;
11100;SDS011;5604;50.722;7.078;2022-11-15T15:23:15;6.37;;;2.20;;
11100;SDS011;5604;50.722;7.078;2022-11-15T15:25:46;3.40;;;2.00;;
11100;SDS011;5604;50.722;7.078;2022-11-15T15:28:15;2.27;;;1.93;;
11100;SDS011;5604;50.722;7.078;2022-11-15T15:30:43;3.40;;;1.90;;
11100;SDS011;5604;50.722;7.078;2022-11-15T15:33:11;4.00;;;2.20;;
11100;SDS011;5604;50.722;7.078;2022-11-15T15:35:39;3.53;;;2.07;;
11100;SDS011;5604;50.722;7.078;2022-11-15T15:38:09;5.40;;;2.03;;
11100;SDS011;5604;50.722;7.078;2022-11-15T15:40:39;2.50;;;2.00;;
11100;SDS011;5604;50.722;7.078;2022-11-15T15:43:08;2.83;;;2.00;;
11100;SDS011;5604;50.722;7.078;2022-11-15T15:45:36;2.57;;;1.83;;
11100;SDS011;5604;50.722;7.078;2022-11-15T15:48:07;2.60;;;2.00;;
11100;SDS011;5604;50.722;7.078;2022-11-15T15:50:38;3.17;;;2.00;;
11100;SDS011;5604;50.722;7.078;2022-11-15T15:53:06;2.53;;;1.83;;
11100;SDS011;5604;50.722;7.078;2022-11-15T15:55:34;2.77;;;1.77;;
11100;SDS011;5604;50.722;7.078;2022-11-15T15:58:02;2.97;;;1.90;;
11100;SDS011;5604;50.722;7.078;2022-11-15T16:00:32;4.10;;;2.23;;
11100;SDS011;5604;50.722;7.078;2022-11-15T16:03:00;2.03;;;1.80;;
11100;SDS011;5604;50.722;7.078;2022-11-15T16:05:29;4.00;;;2.00;;
11100;SDS011;5604;50.722;7.078;2022-11-15T16:07:59;2.57;;;1.80;;
11100;SDS011;5604;50.722;7.078;2022-11-15T16:10:28;1.93;;;1.70;;
11100;SDS011;5604;50.722;7.078;2022-11-15T16:12:58;2.30;;;2.10;;
11100;SDS011;5604;50.722;7.078;2022-11-15T16:15:29;3.40;;;2.00;;
11100;SDS011;5604;50.722;7.078;2022-11-15T16:18:00;2.07;;;1.87;;
11100;SDS011;5604;50.722;7.078;2022-11-15T16:20:33;5.00;;;2.07;;
11100;SDS011;5604;50.722;7.078;2022-11-15T16:23:04;2.23;;;2.00;;
11100;SDS011;5604;50.722;7.078;2022-11-15T16:25:37;2.60;;;2.10;;
11100;SDS011;5604;50.722;7.078;2022-11-15T16:30:59;2.23;;;2.03;;
11100;SDS011;5604;50.722;7.078;2022-11-15T16:33:29;3.83;;;2.10;;
11100;SDS011;5604;50.722;7.078;2022-11-15T16:36:00;3.30;;;2.03;;
11100;SDS011;5604;50.722;7.078;2022-11-15T16:38:28;3.20;;;2.40;;
11100;SDS011;5604;50.722;7.078;2022-11-15T16:40:58;3.00;;;2.03;;
11100;SDS011;5604;50.722;7.078;2022-11-15T16:43:30;2.80;;;2.00;;
11100;SDS011;5604;50.722;7.078;2022-11-15T16:46:00;2.50;;;2.30;;
11100;SDS011;5604;50.722;7.078;2022-11-15T16:48:41;3.97;;;2.30;;
11100;SDS011;5604;50.722;7.078;2022-11-15T16:51:10;2.73;;;2.23;;
11100;SDS011;5604;50.722;7.078;2022-11-15T16:53:45;3.10;;;2.63;;
11100;SDS011;5604;50.722;7.078;2022-11-15T16:56:19;3.60;;;2.00;;
11100;SDS011;5604;50.722;7.078;2022-11-15T16:58:50;2.63;;;2.07;;
11100;SDS011;5604;50.722;7.078;2022-11-15T17:01:21;3.27;;;2.30;;
11100;SDS011;5604;50.722;7.078;2022-11-15T17:03:53;4.50;;;2.30;;
11100;SDS011;5604;50.722;7.078;2022-11-15T17:06:23;8.33;;;2.40;;